createdAt,value
2019-05-23T00:00:54.120Z,93.80
2019-05-23T00:04:01.626Z,93.87
2019-05-23T00:06:52.328Z,93.44
2019-05-23T00:09:42.653Z,93.30
2019-05-23T00:12:33.204Z,92.73
2019-05-23T00:15:11.252Z,93.24
2019-05-23T00:17:43.683Z,92.54
2019-05-23T00:20:16.773Z,92.99
2019-05-23T00:22:49.147Z,92.41
2019-05-23T00:25:20.589Z,93.70
2019-05-23T00:27:54.199Z,92.95
2019-05-23T00:30:27.665Z,93.04
2019-05-23T00:33:00.585Z,93.48
2019-05-23T00:35:33.783Z,92.46
2019-05-23T00:38:06.045Z,92.44
2019-05-23T00:40:39.546Z,92.12
2019-05-23T00:43:12.822Z,91.48
2019-05-23T00:45:45.201Z,92.11
2019-05-23T00:48:17.574Z,92.13
2019-05-23T00:50:50.772Z,92.56
2019-05-23T00:53:22.531Z,92.87
2019-05-23T00:55:54.589Z,92.87
2019-05-23T00:58:26.862Z,92.38
2019-05-23T01:01:00.050Z,92.83
2019-05-23T01:03:32.284Z,92.97
2019-05-23T01:06:03.669Z,92.75
2019-05-23T01:08:35.530Z,92.62
2019-05-23T01:11:07.391Z,93.49
2019-05-23T01:13:40.378Z,92.62
2019-05-23T01:16:12.359Z,92.43
2019-05-23T01:18:43.684Z,92.53
2019-05-23T01:21:28.972Z,92.80
2019-05-23T01:24:05.324Z,92.04
2019-05-23T01:26:36.878Z,92.41
2019-05-23T01:29:09.300Z,92.43
2019-05-23T01:31:42.445Z,93.36
2019-05-23T01:34:15.024Z,92.76
2019-05-23T01:36:47.123Z,93.52
2019-05-23T01:39:19.313Z,91.67
2019-05-23T01:41:51.232Z,93.02
2019-05-23T01:44:24.203Z,93.02
2019-05-23T01:46:56.069Z,93.24
2019-05-23T01:49:28.948Z,94.00
2019-05-23T01:52:00.396Z,94.26
2019-05-23T01:54:32.156Z,94.83
2019-05-23T01:57:03.960Z,94.73
2019-05-23T01:59:35.875Z,94.84
2019-05-23T02:02:08.033Z,94.42
2019-05-23T02:04:40.924Z,93.92
2019-05-23T02:07:13.907Z,94.23
2019-05-23T02:09:46.296Z,94.82
2019-05-23T02:12:18.657Z,94.55
2019-05-23T02:14:50.099Z,94.80
2019-05-23T02:17:21.857Z,94.22
2019-05-23T02:19:55.067Z,94.58
2019-05-23T02:22:28.306Z,93.93
2019-05-23T02:25:00.006Z,93.90
2019-05-23T02:27:31.764Z,94.31
2019-05-23T02:30:05.780Z,94.27
2019-05-23T02:32:37.379Z,94.51
2019-05-23T02:35:10.762Z,94.35
2019-05-23T02:37:44.112Z,93.69
2019-05-23T02:40:23.150Z,93.42
2019-05-23T02:43:02.082Z,93.41
2019-05-23T02:45:51.543Z,93.36
2019-05-23T02:48:24.936Z,93.17
2019-05-23T02:51:01.049Z,91.83
2019-05-23T02:53:33.801Z,91.69
2019-05-23T02:56:08.808Z,90.62
2019-05-23T02:58:48.113Z,90.56
2019-05-23T03:01:36.922Z,90.07
2019-05-23T03:04:10.462Z,89.90
2019-05-23T03:06:41.985Z,90.22
2019-05-23T03:09:15.658Z,90.72
2019-05-23T03:11:50.015Z,91.01
2019-05-23T03:14:22.577Z,90.98
2019-05-23T03:16:54.530Z,90.52
2019-05-23T03:19:47.238Z,90.72
2019-05-23T03:22:31.839Z,90.07
2019-05-23T03:25:10.840Z,90.55
2019-05-23T03:27:44.650Z,90.13
2019-05-23T03:30:18.047Z,90.44
2019-05-23T03:32:51.828Z,90.58
2019-05-23T03:35:36.203Z,90.21
2019-05-23T03:38:09.113Z,88.19
2019-05-23T03:40:41.566Z,86.47
2019-05-23T03:43:13.618Z,86.96
2019-05-23T03:45:52.586Z,85.46
2019-05-23T03:48:24.823Z,85.41
2019-05-23T03:50:57.942Z,84.53
2019-05-23T03:53:30.823Z,84.92
2019-05-23T03:56:03.849Z,84.85
2019-05-23T03:58:35.751Z,83.66
2019-05-23T04:01:09.043Z,83.51
2019-05-23T04:03:42.682Z,81.88
2019-05-23T04:06:14.506Z,81.33
2019-05-23T04:08:46.885Z,81.48
2019-05-23T04:11:19.029Z,81.16
2019-05-23T04:13:50.405Z,81.86
2019-05-23T04:16:23.186Z,81.12
2019-05-23T04:18:54.843Z,79.56
2019-05-23T04:21:27.409Z,79.21
2019-05-23T04:23:59.058Z,77.73
2019-05-23T04:26:31.115Z,75.27
2019-05-23T04:29:03.484Z,75.80
2019-05-23T04:31:35.064Z,74.96
2019-05-23T04:34:06.399Z,75.66
2019-05-23T04:36:38.057Z,75.80
2019-05-23T04:39:10.012Z,73.93
2019-05-23T04:41:42.026Z,74.25
2019-05-23T04:44:15.377Z,71.72
2019-05-23T04:46:46.944Z,71.13
2019-05-23T04:49:19.709Z,64.85
2019-05-23T04:51:51.678Z,62.15
2019-05-23T04:54:23.357Z,63.00
2019-05-23T04:56:56.844Z,63.00
2019-05-23T04:59:28.380Z,63.78
2019-05-23T05:02:00.242Z,64.78
2019-05-23T05:04:31.889Z,63.77
2019-05-23T05:07:04.910Z,63.11
2019-05-23T05:09:38.173Z,61.66
2019-05-23T05:12:10.250Z,59.01
2019-05-23T05:14:41.804Z,56.17
2019-05-23T05:17:13.708Z,54.37
2019-05-23T05:19:44.995Z,52.71
2019-05-23T05:22:16.958Z,50.59
2019-05-23T05:24:48.620Z,48.25
2019-05-23T05:27:21.409Z,49.80
2019-05-23T05:29:53.154Z,52.71
2019-05-23T05:32:41.461Z,55.50
2019-05-23T05:34:58.109Z,57.30
2019-05-23T05:37:30.477Z,55.28
2019-05-23T05:40:02.126Z,54.90
2019-05-23T05:42:34.819Z,51.10
2019-05-23T05:45:09.220Z,52.30
2019-05-23T05:47:47.308Z,53.13
2019-05-23T05:50:18.791Z,53.13
2019-05-23T05:52:50.445Z,50.81
2019-05-23T05:55:21.788Z,46.79
2019-05-23T05:57:59.072Z,45.37
2019-05-23T06:00:52.667Z,43.87
2019-05-23T06:03:24.096Z,42.54
2019-05-23T06:05:56.983Z,42.80
2019-05-23T06:08:31.621Z,40.56
2019-05-23T06:11:02.953Z,38.51
2019-05-23T06:13:35.257Z,36.98
2019-05-23T06:16:06.776Z,35.99
2019-05-23T06:18:51.346Z,34.18
2019-05-23T06:21:24.413Z,34.29
2019-05-23T06:23:55.391Z,32.80
2019-05-23T06:26:26.511Z,33.21
2019-05-23T06:28:58.982Z,31.49
2019-05-23T06:31:34.129Z,31.53
2019-05-23T06:34:05.774Z,35.05
2019-05-23T06:36:37.223Z,37.57
2019-05-23T06:39:10.729Z,37.59
2019-05-23T06:41:42.103Z,38.74
2019-05-23T06:44:14.131Z,39.33
2019-05-23T06:46:46.191Z,40.47
2019-05-23T06:49:19.443Z,41.28
2019-05-23T06:51:50.737Z,37.40
2019-05-23T06:54:22.897Z,35.31
2019-05-23T06:56:54.989Z,34.22
2019-05-23T06:59:27.250Z,34.81
2019-05-23T07:02:03.069Z,35.23
2019-05-23T07:04:34.436Z,32.30
2019-05-23T07:07:07.545Z,32.83
2019-05-23T07:09:38.877Z,31.74
2019-05-23T07:12:12.583Z,30.06
2019-05-23T07:14:44.239Z,30.62
2019-05-23T07:17:16.685Z,29.51
2019-05-23T07:19:48.239Z,29.13
2019-05-23T07:22:21.764Z,29.07
2019-05-23T07:24:58.037Z,27.08
2019-05-23T07:27:33.263Z,29.60
2019-05-23T07:30:09.120Z,28.14
2019-05-23T07:32:40.498Z,27.58
2019-05-23T07:35:12.018Z,27.02
2019-05-23T07:37:43.470Z,29.50
2019-05-23T07:40:15.465Z,30.99
2019-05-23T07:42:46.884Z,30.34
2019-05-23T07:45:39.961Z,27.79
2019-05-23T07:48:13.027Z,27.68
2019-05-23T07:50:53.489Z,26.65
2019-05-23T07:53:26.693Z,26.19
2019-05-23T07:56:00.080Z,24.16
2019-05-23T07:58:32.342Z,25.04
2019-05-23T08:01:07.849Z,23.97
2019-05-23T08:03:41.086Z,23.22
2019-05-23T08:06:13.167Z,23.55
2019-05-23T08:08:49.819Z,26.36
2019-05-23T08:11:22.907Z,28.24
2019-05-23T08:13:54.577Z,27.76
2019-05-23T08:16:26.319Z,28.19
2019-05-23T08:18:57.687Z,27.85
2019-05-23T08:21:50.768Z,26.82
2019-05-23T08:24:22.081Z,26.19
2019-05-23T08:26:54.963Z,26.59
2019-05-23T08:29:27.075Z,26.62
2019-05-23T08:32:01.315Z,26.83
2019-05-23T08:34:44.051Z,29.13
2019-05-23T08:37:19.502Z,30.38
2019-05-23T08:39:51.791Z,28.76
2019-05-23T08:42:24.150Z,26.70
2019-05-23T08:44:56.112Z,25.57
2019-05-23T08:47:31.114Z,24.25
2019-05-23T08:50:03.667Z,24.15
2019-05-23T08:52:35.173Z,25.27
2019-05-23T08:55:15.797Z,23.74
2019-05-23T08:57:49.685Z,24.03
2019-05-23T09:00:20.996Z,23.59
2019-05-23T09:02:58.047Z,24.56
2019-05-23T09:05:28.805Z,24.76
2019-05-23T09:08:00.780Z,25.32
2019-05-23T09:10:39.672Z,24.06
2019-05-23T09:13:12.172Z,23.98
2019-05-23T09:15:43.038Z,23.43
2019-05-23T09:18:14.822Z,23.81
2019-05-23T09:20:46.146Z,24.25
2019-05-23T09:23:17.558Z,23.26
2019-05-23T09:25:52.130Z,23.49
2019-05-23T09:28:23.942Z,24.01
2019-05-23T09:30:55.841Z,25.31
2019-05-23T09:33:29.516Z,27.65
2019-05-23T09:36:00.575Z,28.98
2019-05-23T09:38:31.887Z,31.23
2019-05-23T09:41:03.450Z,32.23
2019-05-23T09:43:35.204Z,31.42
2019-05-23T09:46:06.546Z,30.80
2019-05-23T09:48:37.997Z,30.33
2019-05-23T09:51:09.766Z,32.91
2019-05-23T09:53:46.908Z,33.96
2019-05-23T09:56:14.440Z,35.94
2019-05-23T09:58:46.052Z,36.05
2019-05-23T10:01:18.016Z,35.76
2019-05-23T10:03:49.580Z,35.93
2019-05-23T10:06:21.964Z,37.58
2019-05-23T10:08:53.603Z,39.80
2019-05-23T10:11:24.947Z,42.12
2019-05-23T10:13:56.287Z,41.49
2019-05-23T10:16:27.846Z,43.47
2019-05-23T10:19:01.448Z,42.70
2019-05-23T10:21:32.455Z,44.07
2019-05-23T10:24:04.813Z,43.96
2019-05-23T10:26:36.104Z,44.82
2019-05-23T10:29:07.768Z,45.88
2019-05-23T10:31:39.318Z,45.83
2019-05-23T10:34:11.547Z,46.64
2019-05-23T10:36:43.034Z,46.27
2019-05-23T10:39:14.705Z,45.98
2019-05-23T10:41:46.249Z,46.83
2019-05-23T10:44:18.207Z,46.42
2019-05-23T10:46:50.273Z,47.21
2019-05-23T10:49:21.844Z,47.00
2019-05-23T10:51:53.616Z,47.04
2019-05-23T10:54:25.128Z,47.35
2019-05-23T10:56:56.479Z,48.18
2019-05-23T10:59:28.421Z,46.70
2019-05-23T11:02:00.196Z,48.25
2019-05-23T11:04:32.161Z,47.24
2019-05-23T11:07:03.771Z,46.86
2019-05-23T11:09:38.268Z,46.71
2019-05-23T11:12:09.458Z,46.62
2019-05-23T11:14:41.142Z,46.19
2019-05-23T11:17:12.592Z,46.06
2019-05-23T11:19:44.530Z,45.60
2019-05-23T11:22:15.905Z,45.75
2019-05-23T11:24:47.457Z,44.26
2019-05-23T11:27:19.322Z,43.48
2019-05-23T11:29:51.066Z,44.36
2019-05-23T11:32:23.401Z,43.30
2019-05-23T11:34:55.198Z,43.45
2019-05-23T11:37:26.892Z,42.69
2019-05-23T11:39:58.403Z,42.46
2019-05-23T11:42:29.652Z,42.02
2019-05-23T11:45:01.212Z,42.82
2019-05-23T11:47:32.867Z,43.10
2019-05-23T11:50:07.528Z,42.82
2019-05-23T11:52:39.750Z,44.85
2019-05-23T11:55:11.533Z,44.40
2019-05-23T11:57:43.211Z,42.93
2019-05-23T12:00:19.091Z,44.08
2019-05-23T12:02:51.293Z,44.47
2019-05-23T12:05:30.123Z,43.18
2019-05-23T12:08:01.769Z,44.86
2019-05-23T12:10:34.760Z,46.01
2019-05-23T12:13:06.858Z,46.12
2019-05-23T12:15:40.152Z,45.58
2019-05-23T12:18:11.583Z,44.87
2019-05-23T12:20:43.545Z,46.56
2019-05-23T12:23:14.885Z,46.40
2019-05-23T12:25:46.917Z,45.04
2019-05-23T12:28:18.495Z,43.73
2019-05-23T12:30:49.841Z,44.62
2019-05-23T12:33:21.243Z,45.47
2019-05-23T12:35:53.213Z,45.30
2019-05-23T12:38:24.827Z,45.21
2019-05-23T12:40:56.270Z,43.77
2019-05-23T12:43:27.715Z,45.30
2019-05-23T12:45:59.286Z,44.09
2019-05-23T12:48:38.197Z,45.31
2019-05-23T12:51:14.723Z,43.69
2019-05-23T12:53:46.126Z,44.80
2019-05-23T12:56:17.661Z,45.57
2019-05-23T12:58:49.476Z,45.25
2019-05-23T13:01:21.964Z,46.23
2019-05-23T13:03:53.772Z,44.78
2019-05-23T13:06:25.213Z,47.31
2019-05-23T13:08:56.958Z,47.46
2019-05-23T13:11:28.859Z,47.16
2019-05-23T13:14:00.179Z,46.04
2019-05-23T13:16:32.036Z,46.47
2019-05-23T13:19:03.716Z,46.28
2019-05-23T13:21:35.556Z,46.45
2019-05-23T13:24:07.218Z,46.32
2019-05-23T13:26:38.981Z,46.14
2019-05-23T13:29:10.736Z,46.06
2019-05-23T13:31:43.118Z,46.15
2019-05-23T13:34:14.653Z,46.73
2019-05-23T13:36:46.505Z,46.76
2019-05-23T13:39:18.163Z,49.16
2019-05-23T13:41:49.701Z,49.16
2019-05-23T13:44:32.702Z,48.71
2019-05-23T13:46:54.308Z,47.50
2019-05-23T13:49:26.382Z,47.68
2019-05-23T13:51:57.945Z,47.54
2019-05-23T13:54:29.822Z,47.71
2019-05-23T13:57:01.821Z,48.73
2019-05-23T13:59:34.592Z,50.19
2019-05-23T14:02:09.035Z,48.95
2019-05-23T14:11:27.180Z,49.88
2019-05-23T14:14:01.575Z,50.18
2019-05-23T14:16:43.725Z,50.90
2019-05-23T14:19:20.073Z,50.81
2019-05-23T14:21:52.150Z,50.09
2019-05-23T14:24:23.884Z,49.66
2019-05-23T14:26:57.593Z,50.60
2019-05-23T14:29:33.168Z,49.63
2019-05-23T14:32:22.154Z,50.36
2019-05-23T14:34:55.802Z,51.09
2019-05-23T14:37:33.986Z,51.41
2019-05-23T14:40:18.042Z,51.85
2019-05-23T14:42:59.661Z,52.07
2019-05-23T14:45:49.144Z,52.89
2019-05-23T14:48:26.214Z,51.91
2019-05-23T14:51:16.693Z,52.16
2019-05-23T14:53:57.597Z,51.55
2019-05-23T14:56:36.215Z,52.28
2019-05-23T14:59:09.028Z,52.66
2019-05-23T15:01:50.671Z,52.40
2019-05-23T15:04:27.655Z,53.38
2019-05-23T15:07:01.643Z,54.27
2019-05-23T15:09:34.040Z,54.12
2019-05-23T15:12:08.053Z,53.39
2019-05-23T15:14:40.990Z,53.84
2019-05-23T15:17:13.496Z,53.52
2019-05-23T15:19:48.890Z,52.51
2019-05-23T15:22:25.524Z,52.78
2019-05-23T15:24:58.055Z,53.36
2019-05-23T15:27:33.549Z,52.02
2019-05-23T15:30:08.025Z,52.41
2019-05-23T15:32:40.228Z,52.48
2019-05-23T15:35:14.723Z,53.25
2019-05-23T15:37:59.387Z,53.78
2019-05-23T15:40:28.402Z,54.52
2019-05-23T15:43:00.508Z,53.76
2019-05-23T15:45:35.799Z,55.52
2019-05-23T15:48:10.478Z,55.08
2019-05-23T15:50:49.560Z,55.18
2019-05-23T15:53:26.788Z,55.00
2019-05-23T15:56:26.784Z,54.39
2019-05-23T15:58:46.586Z,55.33
2019-05-23T16:01:20.914Z,56.21
2019-05-23T16:04:08.432Z,56.67
2019-05-23T16:06:41.620Z,56.47
2019-05-23T16:09:28.745Z,55.69
2019-05-23T16:11:56.155Z,56.09
2019-05-23T16:14:31.917Z,57.45
2019-05-23T16:17:06.005Z,57.91
2019-05-23T16:19:40.443Z,57.36
2019-05-23T16:22:13.086Z,58.08
2019-05-23T16:27:43.679Z,59.13
2019-05-23T16:30:25.766Z,57.78
2019-05-23T16:33:10.202Z,58.70
2019-05-23T16:35:51.935Z,58.67
2019-05-23T16:38:27.553Z,59.06
2019-05-23T16:41:11.462Z,59.80
2019-05-23T16:43:45.439Z,60.05
2019-05-23T16:46:17.904Z,61.25
2019-05-23T16:48:51.437Z,61.67
2019-05-23T16:51:24.062Z,61.96
2019-05-23T16:54:06.541Z,62.52
2019-05-23T16:56:57.605Z,62.21
2019-05-23T17:02:28.958Z,63.87
2019-05-23T17:05:09.798Z,64.52
2019-05-23T17:07:57.607Z,65.16
2019-05-23T17:10:39.246Z,64.21
2019-05-23T17:13:28.699Z,65.42
2019-05-23T17:16:18.372Z,67.22
2019-05-23T17:18:52.621Z,68.17
2019-05-23T17:21:43.218Z,69.18
2019-05-23T17:24:33.599Z,69.14
2019-05-23T17:27:27.301Z,69.58
2019-05-23T17:30:08.979Z,70.98
2019-05-23T17:32:52.627Z,72.16
2019-05-23T17:38:28.323Z,73.49
2019-05-23T17:41:03.203Z,73.78
2019-05-23T17:43:40.286Z,74.16
2019-05-23T17:46:12.986Z,74.63
2019-05-23T17:48:47.464Z,74.74
2019-05-23T17:51:27.141Z,76.17
2019-05-23T17:54:00.461Z,75.06
2019-05-23T17:56:48.279Z,76.07
2019-05-23T17:59:17.144Z,75.89
2019-05-23T18:02:09.752Z,75.90
2019-05-23T18:04:52.003Z,76.21
2019-05-23T18:07:23.308Z,77.83
2019-05-23T18:09:57.573Z,77.55
2019-05-23T18:12:32.410Z,77.90
2019-05-23T18:15:10.988Z,78.16
2019-05-23T18:17:43.831Z,78.58
2019-05-23T18:20:16.586Z,79.09
2019-05-23T18:22:55.126Z,78.67
2019-05-23T18:25:29.672Z,78.60
2019-05-23T18:28:06.929Z,78.05
2019-05-23T18:30:59.256Z,78.28
2019-05-23T18:33:32.646Z,79.18
2019-05-23T18:36:12.774Z,78.45
2019-05-23T18:38:47.939Z,79.68
2019-05-23T18:41:20.805Z,79.52
2019-05-23T18:44:06.267Z,80.36
2019-05-23T18:46:44.041Z,80.29
2019-05-23T18:49:18.665Z,79.42
2019-05-23T18:51:58.835Z,80.09
2019-05-23T18:54:31.469Z,79.80
2019-05-23T18:57:13.173Z,80.94
2019-05-23T18:59:51.219Z,81.10
2019-05-23T19:02:24.491Z,81.91
2019-05-23T19:04:56.811Z,82.01
2019-05-23T19:07:39.802Z,82.45
2019-05-23T19:10:20.621Z,82.69
2019-05-23T19:12:59.015Z,83.49
2019-05-23T19:15:33.758Z,84.25
2019-05-23T19:18:08.367Z,84.55
2019-05-23T19:20:40.933Z,84.43
2019-05-23T19:23:15.047Z,84.81
2019-05-23T19:25:47.835Z,85.04
2019-05-23T19:28:21.771Z,85.52
2019-05-23T19:30:54.458Z,85.75
2019-05-23T19:33:26.586Z,85.57
2019-05-23T19:36:01.142Z,86.00
2019-05-23T19:38:35.130Z,86.60
2019-05-23T19:41:09.359Z,86.80
2019-05-23T19:44:01.515Z,86.97
2019-05-23T19:46:27.130Z,87.28
2019-05-23T19:49:05.993Z,85.62
2019-05-23T19:51:38.896Z,86.17
2019-05-23T19:54:16.907Z,86.16
2019-05-23T19:56:52.576Z,86.60
2019-05-23T19:59:27.082Z,87.15
2019-05-23T20:02:20.934Z,87.41
2019-05-23T20:05:06.552Z,87.35
2019-05-23T20:07:46.827Z,86.83
2019-05-23T20:10:29.318Z,87.12
2019-05-23T20:13:03.431Z,86.47
2019-05-23T20:15:46.647Z,86.44
2019-05-23T20:18:27.326Z,87.03
2019-05-23T20:21:00.513Z,87.31
2019-05-23T20:23:34.344Z,87.45
2019-05-23T20:26:08.241Z,87.51
2019-05-23T20:29:22.142Z,87.61
2019-05-23T20:31:55.327Z,87.64
2019-05-23T20:34:31.024Z,87.79
2019-05-23T20:37:03.771Z,87.78
2019-05-23T20:39:36.666Z,88.02
2019-05-23T20:42:30.559Z,87.71
2019-05-23T20:45:03.351Z,88.06
2019-05-23T20:47:41.094Z,88.33
2019-05-23T20:50:14.846Z,88.33
2019-05-23T20:52:47.493Z,88.91
2019-05-23T20:55:20.174Z,89.24
2019-05-23T20:57:52.967Z,89.48
2019-05-23T21:00:35.775Z,89.72
2019-05-23T21:03:10.289Z,89.62
2019-05-23T21:05:42.455Z,89.68
2019-05-23T21:08:15.029Z,89.74
2019-05-23T21:10:48.952Z,89.77
2019-05-23T21:13:21.161Z,90.19
2019-05-23T21:15:53.496Z,90.41
2019-05-23T21:18:25.952Z,90.59
2019-05-23T21:20:58.324Z,90.29
2019-05-23T21:23:31.000Z,90.20
2019-05-23T21:26:05.015Z,90.49
2019-05-23T21:28:37.689Z,90.87
2019-05-23T21:31:11.497Z,91.03
2019-05-23T21:33:44.998Z,90.94
2019-05-23T21:36:17.060Z,91.17
2019-05-23T21:38:49.733Z,91.38
2019-05-23T21:41:21.908Z,91.58
2019-05-23T21:43:55.713Z,91.39
2019-05-23T21:46:27.979Z,91.64
2019-05-23T21:49:01.471Z,91.69
2019-05-23T21:51:34.672Z,91.79
2019-05-23T21:54:06.953Z,92.20
2019-05-23T21:56:39.518Z,92.31
2019-05-23T21:59:11.998Z,92.33
2019-05-23T22:01:46.105Z,92.19
2019-05-23T22:04:29.339Z,92.33
2019-05-23T22:07:01.934Z,92.60
2019-05-23T22:09:34.686Z,92.38
2019-05-23T22:12:06.856Z,92.44
2019-05-23T22:14:39.738Z,92.66
2019-05-23T22:17:12.315Z,92.60
2019-05-23T22:19:44.688Z,92.91
2019-05-23T22:22:17.194Z,92.96
2019-05-23T22:24:49.842Z,93.20
2019-05-23T22:27:22.419Z,93.06
2019-05-23T22:29:54.991Z,93.02
2019-05-23T22:32:28.192Z,93.02
2019-05-23T22:35:01.994Z,93.34
2019-05-23T22:37:34.575Z,93.31
2019-05-23T22:40:07.040Z,93.37
2019-05-23T22:42:39.367Z,93.74
2019-05-23T22:45:13.215Z,94.03
2019-05-23T22:47:45.289Z,93.93
2019-05-23T22:50:17.915Z,93.94
2019-05-23T22:52:50.154Z,94.06
2019-05-23T22:55:22.617Z,94.01
2019-05-23T22:57:55.199Z,94.24
2019-05-23T23:00:36.011Z,94.34
2019-05-23T23:03:08.432Z,94.38
2019-05-23T23:05:40.695Z,94.60
2019-05-23T23:08:13.191Z,94.79
2019-05-23T23:10:45.751Z,94.94
2019-05-23T23:13:18.330Z,95.09
2019-05-23T23:15:50.910Z,94.79
2019-05-23T23:18:23.387Z,94.80
2019-05-23T23:20:55.867Z,94.98
2019-05-23T23:23:28.225Z,94.95
2019-05-23T23:26:01.447Z,94.86
2019-05-23T23:28:37.171Z,94.95
2019-05-23T23:31:09.740Z,95.12
2019-05-23T23:33:41.921Z,95.10
2019-05-23T23:36:18.892Z,95.27
2019-05-23T23:38:52.706Z,95.32
2019-05-23T23:41:25.173Z,95.52
2019-05-23T23:43:59.778Z,95.74
2019-05-23T23:46:49.503Z,95.71
2019-05-23T23:49:39.559Z,96.07
2019-05-23T23:52:29.642Z,95.97
2019-05-23T23:55:19.839Z,95.90
2019-05-23T23:58:00.195Z,95.80
